ADDS METAR Data INFO
IDs: Format: Raw Decoded Include TAF

Data at: 2226 UTC 24 Jun 2018

KMIS 242215Z AUTO 22004KT 10SM CLR 34/24 A3003 RMK A01
KMIS 242155Z AUTO 22006KT 9SM CLR 33/24 A3003 RMK A01
KMIS 242135Z AUTO 22006KT 10SM CLR 34/24 A3003 RMK A01
KMIS 242115Z AUTO 21007KT 10SM CLR 31/24 A3003 RMK A01
KMIS 242055Z AUTO 21007KT 10SM CLR 31/24 A3003 RMK A01
KMIS 242035Z AUTO 21005KT 10SM CLR 32/25 A3003 RMK A01
KMIS 242015Z AUTO 20006KT 10SM CLR 31/24 A3004 RMK A01
KMIS 241955Z AUTO 20008KT 10SM CLR 32/24 A3004 RMK A01
KMIS 241935Z AUTO 19009KT 10SM CLR 30/24 A3004 RMK A01
KMIS 241915Z AUTO 19008KT 10SM CLR 30/24 A3005 RMK A01
KMIS 241855Z AUTO 20008KT 10SM CLR 31/24 A3006 RMK A01
KMIS 241835Z AUTO 21005KT 9SM CLR 34/24 A3006 RMK A01
KMIS 241815Z AUTO 23004KT 9SM CLR 33/24 A3007 RMK A01
KMIS 241755Z AUTO 23003KT 9SM CLR 34/24 A3007 RMK A01
KMIS 241735Z AUTO 22005KT 10SM CLR 33/24 A3007 RMK A01
KMIS 241715Z AUTO 23005KT 9SM CLR 33/24 A3007 RMK A01
KMIS 241655Z AUTO 22006KT 10SM CLR 32/24 A3007 RMK A01
KMIS 241635Z AUTO 21006KT 10SM CLR 32/24 A3006 RMK A01
KMIS 241615Z AUTO 21006KT 10SM CLR 33/25 A3006 RMK A01
KMIS 241555Z AUTO 22005KT 9SM CLR 33/25 A3005 RMK A01
KMIS 241535Z AUTO 22006KT 10SM CLR 32/25 A3006 RMK A01
KMIS 241515Z AUTO 23006KT 10SM CLR 31/25 A3006 RMK A01
KMIS 241455Z AUTO 22006KT 10SM CLR 31/25 A3005 RMK A01
KMIS 241435Z AUTO 23006KT 10SM CLR 31/25 A3005 RMK A01
KMIS 241415Z AUTO 23007KT 10SM CLR 31/25 A3005 RMK A01
KMIS 241355Z AUTO 23007KT 10SM FEW022 FEW027 30/25 A3005 RMK A01
KMIS 241335Z AUTO 23009KT 10SM CLR 29/25 A3004 RMK A01
KMIS 241315Z AUTO 23009KT 10SM CLR 29/25 A3003 RMK A01
KMIS 241255Z AUTO 22010KT 10SM CLR 30/25 A3003 RMK A01
KMIS 241235Z AUTO 22010KT 10SM CLR 29/25 A3003 RMK A01
KMIS 241215Z AUTO 22009KT 10SM FEW023 FEW030 29/25 A3003 RMK A01
KMIS 241155Z AUTO 22009KT 10SM FEW022 29/25 A3003 RMK A01
KMIS 241135Z AUTO 23010KT 10SM FEW022 28/25 A3002 RMK A01
KMIS 241115Z AUTO 22011KT 10SM CLR 29/25 A3002 RMK A01
KMIS 241055Z AUTO 22010KT 10SM CLR 29/25 A3002 RMK A01
KMIS 241035Z AUTO 22011KT 10SM CLR 29/25 A3001 RMK A01
KMIS 241015Z AUTO 22013KT 10SM FEW017 29/25 A3000 RMK A01
KMIS 240955Z AUTO 22012KT 10SM CLR 29/25 A3000 RMK A01
KMIS 240935Z AUTO 22011KT 10SM CLR 28/25 A3000 RMK A01
KMIS 240915Z AUTO 22012KT 10SM CLR 28/25 A2998 RMK A01
KMIS 240855Z AUTO 22011KT 10SM CLR 28/26 A2998 RMK A01
KMIS 240835Z AUTO 23010KT 10SM CLR 29/26 A2998 RMK A01
KMIS 240815Z AUTO 22013KT 10SM CLR 29/26 A2997 RMK A01
KMIS 240755Z AUTO 22012KT 10SM CLR 29/26 A2998 RMK A01
KMIS 240735Z AUTO 22014KT 10SM CLR 29/26 A2998 RMK A01
KMIS 240715Z AUTO 22013KT 10SM CLR 29/26 A2997 RMK A01
KMIS 240655Z AUTO 22013KT 10SM FEW019 FEW029 FEW041 29/26 A2997 RMK A01
KMIS 240635Z AUTO 21015KT 10SM CLR 29/25 A2997 RMK A01
KMIS 240615Z AUTO 21017KT 10SM CLR 29/25 A2998 RMK A01
KMIS 240555Z AUTO 20019KT 10SM FEW019 FEW026 FEW031 29/25 A2998 RMK A01
KMIS 240535Z AUTO 21019KT 10SM FEW019 FEW026 29/25 A2998 RMK A01
KMIS 240515Z AUTO 21015KT 10SM FEW020 SCT025 SCT030 29/25 A2999 RMK A01
KMIS 240405Z AUTO 20017KT 10SM CLR 29/25 A3000 RMK A01
KMIS 240355Z AUTO 20017KT 10SM CLR 29/25 A3000 RMK A01
KMIS 240335Z AUTO 20017KT 10SM CLR 29/25 A2999 RMK A01
KMIS 240315Z AUTO 20016KT 10SM CLR 29/25 A2998 RMK A01
KMIS 240255Z AUTO 20017KT 10SM FEW022 FEW030 29/25 A2997 RMK A01
KMIS 240235Z AUTO 20017KT 10SM CLR 29/25 A2996 RMK A01
KMIS 240215Z AUTO 21015KT 10SM CLR 29/24 A2996 RMK A01
KMIS 240155Z AUTO 20016KT 10SM CLR 29/25 A2995 RMK A01
KMIS 240135Z AUTO 21014KT 10SM CLR 29/25 A2996 RMK A01
KMIS 240115Z AUTO 20015KT 10SM CLR 29/25 A2995 RMK A01
KMIS 240055Z AUTO 20016KT 10SM CLR 29/24 A2994 RMK A01
KMIS 240035Z AUTO 20015KT 10SM CLR 30/25 A2994 RMK A01
KMIS 240015Z AUTO 21013KT 10SM CLR 30/24 A2995 RMK A01
KMIS 232355Z AUTO 21013KT 10SM CLR 30/25 A2995 RMK A01
KMIS 232335Z AUTO 21010KT 10SM CLR 31/25 A2995 RMK A01
KMIS 232315Z AUTO 21011KT 10SM CLR 30/24 A2994 RMK A01
KMIS 232255Z AUTO 22010KT 10SM CLR 31/25 A2995 RMK A01
KMIS 232235Z AUTO 21010KT 10SM CLR 31/24 A2995 RMK A01
KMIS 232215Z AUTO 22010KT 10SM CLR 31/25 A2996 RMK A01
KMIS 232155Z AUTO 22010KT 10SM CLR 30/25 A2996 RMK A01
KMIS 232135Z AUTO 22009KT 10SM CLR 30/25 A2996 RMK A01
KMIS 232115Z AUTO 22009KT 10SM FEW028 FEW042 FEW049 31/25 A2997 RMK A01
KMIS 232055Z AUTO 22011KT 10SM FEW028 SCT042 BKN048 30/25 A2998 RMK A01
KMIS 232035Z AUTO 22010KT 10SM SCT028 SCT034 BKN047 30/25 A2998 RMK A01
KMIS 232015Z AUTO 23010KT 10SM FEW028 FEW035 30/24 A2998 RMK A01
KMIS 231955Z AUTO 23011KT 10SM FEW031 FEW039 30/24 A2999 RMK A01
KMIS 231935Z AUTO 23011KT 10SM FEW030 30/24 A2999 RMK A01
KMIS 231915Z AUTO 22012KT 10SM SCT030 30/24 A2998 RMK A01
KMIS 231855Z AUTO 22013KT 10SM SCT027 BKN032 BKN043 30/24 A2999 RMK A01
KMIS 231835Z AUTO 22010KT 10SM SCT028 SCT041 30/25 A3000 RMK A01
KMIS 231815Z AUTO 22011KT 10SM FEW030 30/24 A3001 RMK A01
KMIS 231755Z AUTO 22011KT 10SM FEW027 30/25 A3001 RMK A01
KMIS 231735Z AUTO 22011KT 10SM FEW028 30/25 A3001 RMK A01
KMIS 231715Z AUTO 23010KT 10SM CLR 30/25 A3002 RMK A01
KMIS 231655Z AUTO 23010KT 10SM CLR 30/25 A3003 RMK A01
KMIS 231635Z AUTO 23010KT 10SM CLR 30/25 A3002 RMK A01
KMIS 231615Z AUTO 23011KT 10SM CLR 29/25 A3001 RMK A01
KMIS 231555Z AUTO 23010KT 10SM CLR 29/25 A3001 RMK A01
KMIS 231535Z AUTO 23010KT 10SM CLR 29/25 A3001 RMK A01
KMIS 231515Z AUTO 23010KT 10SM CLR 29/25 A3001 RMK A01
KMIS 231455Z AUTO 23011KT 10SM CLR 29/25 A3000 RMK A01
KMIS 231435Z AUTO 23010KT 10SM CLR 30/25 A3000 RMK A01
KMIS 231415Z AUTO 24011KT 10SM CLR 30/25 A3000 RMK A01
KMIS 231355Z AUTO 23010KT 10SM CLR 30/25 A2999 RMK A01
KMIS 231335Z AUTO 23010KT 10SM CLR 30/25 A2999 RMK A01
KMIS 231315Z AUTO 24010KT 10SM CLR 30/25 A2999 RMK A01
KMIS 231255Z AUTO 24012KT 10SM CLR 29/25 A2999 RMK A01
KMIS 231235Z AUTO 24013KT 10SM CLR 29/25 A2998 RMK A01
KMIS 231210Z AUTO 24014KT 10SM CLR 29/25 A2998 RMK A01
KMIS 231155Z AUTO 24013KT 10SM CLR 29/25 A2997 RMK A01
KMIS 231135Z AUTO 24013KT 10SM CLR 29/25 A2997 RMK A01
KMIS 231115Z AUTO 24015KT 10SM CLR 29/25 A2996 RMK A01
KMIS 231055Z AUTO 24014KT 10SM CLR 29/25 A2995 RMK A01
KMIS 231035Z AUTO 23013KT 10SM CLR 28/25 A2994 RMK A01